Time;durP1;ratioP1;P1;durP2;ratioP2;P2;SDS_P1;SDS_P2;PMS_P1;PMS_P2;Temp;Humidity;BMP_temperature;BMP_pressure;BME280_temperature;BME280_humidity;BME280_pressure;Samples;Min_cycle;Max_cycle;Signal;HPM_P1;HPM_P2
2022/04/05 00:00:34;;;;;;;9.23;2.05;;;8.00;99.90;;;;;;5061924;28;38607;-52
2022/04/05 00:03:03;;;;;;;10.48;2.00;;;8.00;99.90;;;;;;5060716;28;38198;-53
2022/04/05 00:05:30;;;;;;;4.50;1.27;;;8.00;99.90;;;;;;5061259;28;38144;-52
2022/04/05 00:07:58;;;;;;;9.07;1.52;;;8.00;99.90;;;;;;5061872;28;35196;-50
2022/04/05 00:10:25;;;;;;;10.25;1.80;;;7.90;99.90;;;;;;5061192;28;37589;-52
2022/04/05 00:12:53;;;;;;;8.27;1.70;;;7.90;99.90;;;;;;5061915;28;37644;-52
2022/04/05 00:15:20;;;;;;;8.32;1.58;;;8.00;99.90;;;;;;5062630;28;36133;-53
2022/04/05 00:17:47;;;;;;;8.38;1.45;;;7.90;99.90;;;;;;5061775;28;35827;-51
2022/04/05 00:20:16;;;;;;;10.48;1.50;;;7.90;99.90;;;;;;5060549;28;38462;-51
2022/04/05 00:22:43;;;;;;;8.75;1.60;;;7.90;99.90;;;;;;5060407;28;37811;-50
2022/04/05 00:25:11;;;;;;;10.55;1.55;;;7.90;99.90;;;;;;5060673;28;36251;-52
2022/04/05 00:27:38;;;;;;;8.65;1.17;;;7.90;99.90;;;;;;5061516;28;38961;-51
2022/04/05 00:30:06;;;;;;;10.90;2.03;;;7.90;99.90;;;;;;5061150;28;37910;-51
2022/04/05 00:32:34;;;;;;;20.50;2.42;;;7.90;99.90;;;;;;5061147;28;37732;-51
2022/04/05 00:35:01;;;;;;;9.55;1.83;;;7.90;99.90;;;;;;5062660;28;36854;-52
2022/04/05 00:37:30;;;;;;;9.85;1.73;;;7.80;99.90;;;;;;5061755;28;36159;-52
2022/04/05 00:39:57;;;;;;;12.10;1.70;;;7.80;99.90;;;;;;5062326;28;39662;-49
2022/04/05 00:42:24;;;;;;;12.80;1.67;;;7.80;99.90;;;;;;5061529;28;37581;-51
2022/04/05 00:44:52;;;;;;;12.25;1.98;;;7.80;99.90;;;;;;5062505;28;36691;-52
2022/04/05 00:47:21;;;;;;;11.75;2.03;;;7.80;99.90;;;;;;5059354;28;37446;-51
2022/04/05 00:49:50;;;;;;;12.40;2.25;;;7.80;99.90;;;;;;5061081;28;40975;-49
2022/04/05 00:52:19;;;;;;;10.20;1.48;;;7.80;99.90;;;;;;5061383;28;37495;-51
2022/04/05 00:54:49;;;;;;;11.02;1.65;;;7.80;99.90;;;;;;5060775;28;36058;-53
2022/04/05 00:57:19;;;;;;;13.45;1.75;;;7.80;99.90;;;;;;5060740;28;36386;-52
2022/04/05 00:59:48;;;;;;;10.43;1.55;;;7.80;99.90;;;;;;5061606;28;37524;-52
2022/04/05 01:02:17;;;;;;;8.02;1.80;;;7.80;99.90;;;;;;5060290;28;38165;-51
2022/04/05 01:04:47;;;;;;;14.57;2.25;;;7.80;99.90;;;;;;5061952;28;37229;-50
2022/04/05 01:07:16;;;;;;;12.48;2.17;;;7.80;99.90;;;;;;5061441;28;37571;-50
2022/04/05 01:09:44;;;;;;;11.38;1.92;;;7.80;99.90;;;;;;5061910;28;37872;-50
2022/04/05 01:12:14;;;;;;;15.48;2.13;;;7.80;99.90;;;;;;5061569;28;37471;-52
2022/04/05 01:14:43;;;;;;;11.57;2.17;;;7.80;99.90;;;;;;5062246;28;37274;-51
2022/04/05 01:17:10;;;;;;;14.52;2.70;;;7.80;99.90;;;;;;5062083;28;37015;-52
2022/04/05 01:19:38;;;;;;;10.65;2.05;;;7.80;99.90;;;;;;5061914;28;38269;-51
2022/04/05 01:22:06;;;;;;;18.55;3.42;;;7.80;99.90;;;;;;5061568;28;37136;-50
2022/04/05 01:24:35;;;;;;;12.13;1.70;;;7.80;99.90;;;;;;5060436;28;37981;-52
2022/04/05 01:27:06;;;;;;;10.13;2.17;;;7.80;99.90;;;;;;5061652;28;38852;-51
2022/04/05 01:29:34;;;;;;;11.73;1.90;;;7.80;99.90;;;;;;5062128;28;37660;-51
2022/04/05 01:32:04;;;;;;;13.25;2.83;;;7.80;99.90;;;;;;5059723;28;38230;-50
2022/04/05 01:34:34;;;;;;;12.88;1.90;;;7.80;99.90;;;;;;5062269;28;36107;-53
2022/04/05 01:37:03;;;;;;;11.82;2.10;;;7.80;99.90;;;;;;5061059;28;36603;-51
2022/04/05 01:39:32;;;;;;;14.55;2.00;;;7.80;99.90;;;;;;5060368;28;37168;-51
2022/04/05 01:42:03;;;;;;;11.23;2.10;;;7.80;99.90;;;;;;5061978;28;36236;-52
2022/04/05 01:44:33;;;;;;;14.90;2.40;;;7.80;99.90;;;;;;5061964;28;38552;-51
2022/04/05 01:47:04;;;;;;;17.50;2.35;;;7.90;99.90;;;;;;5060911;28;35427;-51
2022/04/05 01:49:31;;;;;;;13.52;2.58;;;7.80;99.90;;;;;;5061242;28;37610;-50
2022/04/05 01:51:58;;;;;;;12.05;2.30;;;7.80;99.90;;;;;;5061097;28;38321;-49
2022/04/05 01:54:26;;;;;;;21.60;2.15;;;7.90;99.90;;;;;;5063183;28;38501;-51
2022/04/05 01:56:53;;;;;;;11.85;1.52;;;7.80;99.90;;;;;;5065415;28;36172;-48
2022/04/05 01:59:26;;;;;;;13.40;2.20;;;7.80;99.90;;;;;;5065046;28;39915;-52
2022/04/05 02:01:53;;;;;;;15.52;3.00;;;7.80;99.90;;;;;;5063928;28;37938;-51
2022/04/05 02:04:21;;;;;;;11.88;2.15;;;7.80;99.90;;;;;;5065124;28;37348;-51
2022/04/05 02:06:48;;;;;;;13.15;2.05;;;7.80;99.90;;;;;;5063451;28;36308;-52
2022/04/05 02:09:17;;;;;;;16.98;2.45;;;7.80;99.90;;;;;;5064834;28;37677;-51
2022/04/05 02:11:46;;;;;;;23.75;3.03;;;7.80;99.90;;;;;;5063641;28;37247;-50
2022/04/05 02:14:15;;;;;;;17.63;2.67;;;7.80;99.90;;;;;;5064195;28;36277;-52
2022/04/05 02:16:44;;;;;;;19.65;2.88;;;7.80;99.90;;;;;;5062745;28;35281;-53
2022/04/05 02:19:11;;;;;;;16.52;2.58;;;7.80;99.90;;;;;;5063689;28;39012;-52
2022/04/05 02:21:39;;;;;;;18.98;2.65;;;7.80;99.90;;;;;;5063977;28;38124;-53
2022/04/05 02:24:07;;;;;;;17.75;2.90;;;7.80;99.90;;;;;;5064760;28;37440;-52
2022/04/05 02:26:34;;;;;;;18.38;2.30;;;7.90;99.90;;;;;;5064150;28;37555;-53
2022/04/05 02:29:01;;;;;;;18.23;2.72;;;7.80;99.90;;;;;;5064387;28;36217;-52
2022/04/05 02:31:30;;;;;;;21.38;2.50;;;7.90;99.90;;;;;;5065253;28;37556;-51
2022/04/05 02:34:00;;;;;;;16.73;2.83;;;7.90;99.90;;;;;;5064762;28;20053;-52
2022/04/05 02:36:27;;;;;;;21.45;2.88;;;7.90;99.90;;;;;;5063776;28;36412;-51
2022/04/05 02:38:55;;;;;;;16.98;2.55;;;7.90;99.90;;;;;;5064572;28;37199;-53
2022/04/05 02:41:22;;;;;;;21.35;2.45;;;7.90;99.90;;;;;;5063399;28;39394;-51
2022/04/05 02:43:49;;;;;;;18.25;2.75;;;7.90;99.90;;;;;;5064789;28;36092;-52
2022/04/05 02:46:17;;;;;;;15.68;2.50;;;7.90;99.90;;;;;;5064809;28;36697;-53
2022/04/05 02:48:45;;;;;;;15.75;3.22;;;7.90;99.90;;;;;;5064314;28;37616;-52
2022/04/05 02:51:14;;;;;;;16.38;2.75;;;7.90;99.90;;;;;;5062964;28;37648;-52
2022/04/05 02:53:43;;;;;;;20.90;3.00;;;7.90;99.90;;;;;;5063912;28;38006;-51
2022/04/05 02:56:10;;;;;;;11.18;1.90;;;7.80;99.90;;;;;;5063422;28;37459;-49
2022/04/05 02:58:38;;;;;;;18.27;3.25;;;7.80;99.90;;;;;;5063997;28;36232;-50
2022/04/05 03:01:06;;;;;;;17.70;2.00;;;7.80;99.90;;;;;;5063577;28;39042;-52
2022/04/05 03:03:34;;;;;;;13.38;2.35;;;7.80;99.90;;;;;;5063126;28;37460;-52
2022/04/05 03:06:02;;;;;;;11.55;2.63;;;7.80;99.90;;;;;;5061957;28;37787;-52
2022/04/05 03:08:31;;;;;;;18.65;2.60;;;7.80;99.90;;;;;;5063944;28;37461;-53
2022/04/05 03:10:59;;;;;;;14.52;2.15;;;7.80;99.90;;;;;;5063350;28;39634;-52
2022/04/05 03:13:26;;;;;;;14.13;3.15;;;7.80;99.90;;;;;;5062559;28;37508;-52
2022/04/05 03:15:53;;;;;;;21.73;3.30;;;7.80;99.90;;;;;;5064296;28;34593;-51
2022/04/05 03:18:21;;;;;;;21.88;4.35;;;7.80;99.90;;;;;;5063532;28;37375;-52
2022/04/05 03:20:48;;;;;;;21.65;2.50;;;7.70;99.90;;;;;;5062997;28;38266;-53
2022/04/05 03:23:15;;;;;;;17.20;3.00;;;7.80;99.90;;;;;;5063875;28;37396;-51
2022/04/05 03:25:44;;;;;;;16.48;2.67;;;7.80;99.90;;;;;;5063206;28;36912;-53
2022/04/05 03:28:11;;;;;;;19.63;2.53;;;7.80;99.90;;;;;;5064124;28;37730;-48
2022/04/05 03:30:38;;;;;;;14.23;2.03;;;7.70;99.90;;;;;;5063911;28;36354;-50
2022/04/05 03:33:06;;;;;;;20.48;2.70;;;7.70;99.90;;;;;;5063891;28;37789;-52
2022/04/05 03:35:33;;;;;;;21.33;3.22;;;7.70;99.90;;;;;;5062356;28;37393;-52
2022/04/05 03:38:01;;;;;;;22.27;3.17;;;7.70;99.90;;;;;;5061179;28;36241;-52
2022/04/05 03:40:28;;;;;;;21.38;3.40;;;7.70;99.90;;;;;;5061147;28;38834;-53
2022/04/05 03:42:57;;;;;;;24.40;3.50;;;7.70;99.90;;;;;;5062135;28;37174;-52
2022/04/05 03:45:25;;;;;;;20.25;2.60;;;7.70;99.90;;;;;;5062924;28;37291;-52
2022/04/05 03:47:53;;;;;;;16.23;2.70;;;7.70;99.90;;;;;;5062541;28;38951;-52
2022/04/05 03:50:20;;;;;;;21.52;4.03;;;7.70;99.90;;;;;;5063803;28;36519;-52
2022/04/05 03:52:48;;;;;;;16.33;2.55;;;7.60;99.90;;;;;;5063347;28;38031;-53
2022/04/05 03:55:15;;;;;;;17.50;2.65;;;7.60;99.90;;;;;;5063472;28;37266;-51
2022/04/05 03:57:42;;;;;;;24.23;3.17;;;7.70;99.90;;;;;;5063096;28;37659;-52
2022/04/05 04:00:12;;;;;;;15.10;2.20;;;7.70;99.90;;;;;;5061975;28;37497;-51
2022/04/05 04:02:39;;;;;;;19.83;3.20;;;7.70;99.90;;;;;;5062925;28;36042;-53
2022/04/05 04:05:08;;;;;;;17.13;2.83;;;7.70;99.90;;;;;;5063547;28;36303;-52
2022/04/05 04:07:39;;;;;;;16.25;3.72;;;7.70;99.90;;;;;;5063483;28;38326;-51
2022/04/05 04:10:08;;;;;;;13.57;2.40;;;7.70;99.90;;;;;;5062331;28;37695;-52
2022/04/05 04:12:35;;;;;;;19.10;2.55;;;7.60;99.90;;;;;;5063991;28;37444;-52
2022/04/05 04:15:03;;;;;;;18.45;2.35;;;7.60;99.90;;;;;;5062737;28;36747;-51
2022/04/05 04:17:31;;;;;;;13.05;2.53;;;7.60;99.90;;;;;;5063462;28;37953;-52
2022/04/05 04:19:58;;;;;;;15.95;2.58;;;7.70;99.90;;;;;;5062891;28;37228;-52
2022/04/05 04:22:27;;;;;;;20.75;2.80;;;7.70;99.90;;;;;;5063418;28;39450;-52
2022/04/05 04:24:56;;;;;;;15.65;2.53;;;7.70;99.90;;;;;;5062842;28;37986;-52
2022/04/05 04:27:23;;;;;;;25.65;3.63;;;7.70;99.90;;;;;;5063982;28;38890;-52
2022/04/05 04:29:51;;;;;;;19.42;3.25;;;7.70;99.90;;;;;;5062988;28;37754;-52
2022/04/05 04:32:18;;;;;;;18.85;2.50;;;7.70;99.90;;;;;;5063010;28;37147;-50
2022/04/05 04:34:47;;;;;;;15.05;2.83;;;7.60;99.90;;;;;;5062407;28;37180;-52
2022/04/05 04:37:14;;;;;;;26.35;2.85;;;7.70;99.90;;;;;;5061947;28;38380;-51
2022/04/05 04:39:42;;;;;;;15.45;3.45;;;7.60;99.90;;;;;;5061201;28;37576;-52
2022/04/05 04:42:09;;;;;;;17.60;3.10;;;7.60;99.90;;;;;;5062566;28;39961;-52
2022/04/05 04:44:36;;;;;;;14.50;2.60;;;7.70;99.90;;;;;;5062167;28;37591;-52
2022/04/05 04:47:05;;;;;;;19.10;2.63;;;7.70;99.90;;;;;;5061941;28;36376;-52
2022/04/05 04:49:32;;;;;;;13.35;2.78;;;7.70;99.90;;;;;;5061266;28;36448;-53
2022/04/05 04:52:01;;;;;;;18.75;2.83;;;7.70;99.90;;;;;;5060593;28;37208;-51
2022/04/05 04:54:28;;;;;;;20.15;2.83;;;7.70;99.90;;;;;;5060825;28;37538;-52
2022/04/05 04:56:55;;;;;;;17.60;3.08;;;7.80;99.90;;;;;;5060195;28;38761;-52
2022/04/05 04:59:23;;;;;;;14.65;2.65;;;7.70;99.90;;;;;;5059571;28;38819;-53
2022/04/05 05:01:50;;;;;;;23.42;2.90;;;7.70;99.90;;;;;;5060536;28;37507;-50
2022/04/05 05:04:17;;;;;;;17.45;2.40;;;7.70;99.90;;;;;;5060035;28;36252;-51
2022/04/05 05:06:45;;;;;;;16.48;2.38;;;7.70;99.90;;;;;;5059573;28;38421;-52
2022/04/05 05:09:14;;;;;;;17.85;2.25;;;7.60;99.90;;;;;;5060123;28;37788;-49
2022/04/05 05:11:41;;;;;;;23.50;3.42;;;7.60;99.90;;;;;;5059843;28;37380;-52
2022/04/05 05:14:09;;;;;;;16.75;3.20;;;7.60;99.90;;;;;;5061145;28;34930;-52
2022/04/05 05:16:36;;;;;;;19.60;2.60;;;7.60;99.90;;;;;;5061005;28;38270;-52
2022/04/05 05:19:05;;;;;;;16.20;2.00;;;7.60;99.90;;;;;;5060683;28;37698;-50
2022/04/05 05:21:32;;;;;;;17.73;2.05;;;7.60;99.90;;;;;;5060076;28;38666;-54
2022/04/05 05:23:59;;;;;;;11.70;2.03;;;7.60;99.90;;;;;;5062011;28;36412;-52
2022/04/05 05:26:28;;;;;;;13.13;2.58;;;7.60;99.90;;;;;;5062267;28;39041;-52
2022/04/05 05:28:55;;;;;;;12.85;2.28;;;7.60;99.90;;;;;;5063121;28;37602;-52
2022/04/05 05:31:23;;;;;;;18.80;3.97;;;7.60;99.90;;;;;;5064475;28;38608;-51
2022/04/05 05:33:50;;;;;;;15.60;2.17;;;7.60;99.90;;;;;;5064959;28;35383;-52
2022/04/05 05:36:17;;;;;;;18.95;2.20;;;7.70;99.90;;;;;;5064040;28;37015;-51
2022/04/05 05:38:45;;;;;;;13.50;2.55;;;7.70;99.90;;;;;;5064058;28;39402;-51
2022/04/05 05:41:12;;;;;;;16.15;2.40;;;7.80;99.90;;;;;;5062388;28;35199;-52
2022/04/05 05:43:45;;;;;;;16.45;2.75;;;7.80;99.90;;;;;;5063350;28;36532;-51
2022/04/05 05:46:12;;;;;;;17.50;2.58;;;7.80;99.90;;;;;;5063465;28;36644;-53
2022/04/05 05:48:40;;;;;;;27.17;3.05;;;7.80;99.90;;;;;;5064017;28;37981;-52
2022/04/05 05:51:08;;;;;;;13.40;2.25;;;7.90;99.90;;;;;;5064568;28;37283;-52
2022/04/05 05:53:36;;;;;;;16.27;2.65;;;7.90;99.90;;;;;;5065166;28;37956;-53
2022/04/05 05:56:03;;;;;;;17.15;2.85;;;7.90;99.90;;;;;;5065319;28;36274;-53
2022/04/05 05:58:31;;;;;;;17.13;3.15;;;7.90;99.90;;;;;;5064673;28;38575;-53
2022/04/05 06:01:00;;;;;;;18.50;2.85;;;8.00;99.90;;;;;;5064603;28;39540;-52
2022/04/05 06:03:28;;;;;;;13.88;2.25;;;8.00;99.90;;;;;;5064525;28;37224;-53
2022/04/05 06:05:55;;;;;;;17.90;2.65;;;8.00;99.90;;;;;;5064814;28;38529;-52
2022/04/05 06:08:23;;;;;;;17.38;2.63;;;8.00;99.90;;;;;;5064487;28;37613;-51
2022/04/05 06:10:50;;;;;;;17.83;2.72;;;8.00;99.90;;;;;;5065203;28;38063;-51
2022/04/05 06:13:18;;;;;;;13.05;2.17;;;8.00;99.90;;;;;;5064184;28;38843;-53
2022/04/05 06:15:45;;;;;;;20.80;2.78;;;8.10;99.90;;;;;;5065015;28;37224;-51
2022/04/05 06:18:14;;;;;;;15.77;2.45;;;8.10;99.90;;;;;;5064850;28;37833;-52
2022/04/05 06:20:41;;;;;;;15.80;2.55;;;8.10;99.90;;;;;;5063594;28;37519;-52
2022/04/05 06:23:08;;;;;;;11.38;2.38;;;8.10;99.90;;;;;;5063983;28;37007;-49
2022/04/05 06:25:38;;;;;;;13.73;2.55;;;8.20;99.90;;;;;;5062736;28;37265;-52
2022/04/05 06:28:08;;;;;;;14.32;2.72;;;8.20;99.90;;;;;;5062986;28;38237;-52
2022/04/05 06:30:37;;;;;;;15.82;2.45;;;8.20;99.90;;;;;;5061471;28;37662;-52
2022/04/05 06:33:06;;;;;;;14.52;2.50;;;8.30;99.90;;;;;;5061360;28;36183;-53
2022/04/05 06:35:38;;;;;;;14.52;2.75;;;8.30;99.90;;;;;;5063281;28;36337;-52
2022/04/05 06:38:06;;;;;;;11.73;2.38;;;8.30;99.90;;;;;;5062960;28;37786;-52
2022/04/05 06:40:34;;;;;;;12.60;2.40;;;8.40;99.90;;;;;;5062066;28;35946;-52
2022/04/05 06:43:01;;;;;;;19.23;2.25;;;8.40;99.90;;;;;;5063494;28;36115;-53
2022/04/05 06:45:29;;;;;;;15.30;2.78;;;8.40;99.90;;;;;;5063038;28;38034;-49
2022/04/05 06:47:57;;;;;;;14.65;2.60;;;8.50;99.90;;;;;;5063381;28;38139;-51
2022/04/05 06:50:25;;;;;;;15.80;2.50;;;8.50;99.90;;;;;;5064646;28;36153;-52
2022/04/05 06:52:55;;;;;;;16.27;2.38;;;8.50;99.90;;;;;;5064081;28;35440;-53
2022/04/05 06:55:22;;;;;;;12.98;2.90;;;8.60;99.90;;;;;;5064423;28;37416;-49
2022/04/05 06:57:50;;;;;;;16.13;3.00;;;8.70;99.90;;;;;;5064104;28;36427;-52
2022/04/05 07:00:19;;;;;;;13.32;2.17;;;8.80;99.90;;;;;;5063645;28;36884;-51
2022/04/05 07:02:47;;;;;;;10.95;2.40;;;8.90;99.90;;;;;;5063371;28;35056;-50
2022/04/05 07:05:14;;;;;;;11.82;2.25;;;8.90;99.90;;;;;;5064761;28;38561;-52
2022/04/05 07:07:42;;;;;;;12.35;2.42;;;9.00;99.90;;;;;;5062471;28;37360;-49
2022/04/05 07:10:14;;;;;;;12.55;2.67;;;8.90;99.90;;;;;;5057632;28;37831;-52
2022/04/05 07:12:42;;;;;;;12.93;2.72;;;9.00;99.90;;;;;;5061548;28;36848;-53
2022/04/05 07:15:10;;;;;;;12.48;2.40;;;8.90;99.90;;;;;;5062692;28;37679;-52
2022/04/05 07:17:38;;;;;;;9.18;2.22;;;8.90;99.90;;;;;;5063347;28;37647;-53
2022/04/05 07:20:09;;;;;;;11.18;2.25;;;8.90;99.90;;;;;;5061984;28;38140;-52
2022/04/05 07:22:45;;;;;;;12.65;2.10;;;8.90;99.90;;;;;;5063377;28;37505;-51
2022/04/05 07:25:14;;;;;;;12.75;2.58;;;8.90;99.90;;;;;;5063118;28;37411;-52
2022/04/05 07:27:42;;;;;;;12.10;2.10;;;8.90;99.90;;;;;;5062308;28;37826;-51
2022/04/05 07:30:09;;;;;;;16.50;2.72;;;8.90;99.90;;;;;;5064201;28;36147;-52
2022/04/05 07:32:38;;;;;;;13.98;2.25;;;8.90;99.90;;;;;;5063216;28;38000;-53
2022/04/05 07:35:06;;;;;;;14.45;2.85;;;8.90;99.90;;;;;;5064294;28;37713;-52
2022/04/05 07:37:33;;;;;;;13.30;2.85;;;8.90;99.90;;;;;;5062942;28;42543;-50
2022/04/05 07:40:03;;;;;;;12.30;2.30;;;8.90;99.90;;;;;;5062260;28;39179;-53
2022/04/05 07:42:31;;;;;;;9.77;2.53;;;8.80;99.90;;;;;;5062738;28;37530;-52
2022/04/05 07:44:59;;;;;;;18.38;2.90;;;8.80;99.90;;;;;;5061957;28;37590;-50
2022/04/05 07:47:26;;;;;;;8.00;2.05;;;8.80;99.90;;;;;;5062503;28;37950;-53
2022/04/05 07:49:53;;;;;;;12.90;3.03;;;8.80;99.90;;;;;;5062615;28;37721;-52
2022/04/05 07:52:21;;;;;;;8.75;2.85;;;8.80;99.90;;;;;;5062721;28;36278;-53
2022/04/05 07:54:48;;;;;;;11.00;2.58;;;8.80;99.90;;;;;;5062670;28;38267;-52
2022/04/05 07:57:16;;;;;;;7.75;1.95;;;8.70;99.90;;;;;;5063183;28;37524;-52
2022/04/05 07:59:45;;;;;;;14.15;3.47;;;8.80;99.90;;;;;;5061112;28;41965;-52
2022/04/05 08:02:12;;;;;;;17.30;3.42;;;8.80;99.90;;;;;;5061685;28;36577;-49
2022/04/05 08:04:40;;;;;;;13.68;3.13;;;8.80;99.90;;;;;;5061756;28;38705;-52
2022/04/05 08:07:07;;;;;;;14.98;3.47;;;8.80;99.90;;;;;;5061886;28;36468;-53
2022/04/05 08:09:34;;;;;;;14.30;2.72;;;8.90;99.90;;;;;;5061339;28;38407;-51
2022/04/05 08:12:02;;;;;;;14.00;2.40;;;8.80;99.90;;;;;;5061796;28;36305;-52
2022/04/05 08:14:31;;;;;;;15.60;3.70;;;8.80;99.90;;;;;;5061852;28;40512;-53
2022/04/05 08:17:01;;;;;;;12.20;2.85;;;8.90;99.90;;;;;;5062760;28;36458;-53
2022/04/05 08:19:29;;;;;;;15.43;2.58;;;8.90;99.90;;;;;;5061725;28;37557;-49
2022/04/05 08:21:56;;;;;;;8.60;2.30;;;9.00;99.90;;;;;;5062311;28;36970;-53
2022/04/05 08:24:23;;;;;;;11.00;2.40;;;9.00;99.90;;;;;;5060310;28;36285;-53
2022/04/05 08:26:51;;;;;;;13.07;3.50;;;9.00;99.90;;;;;;5060665;28;38992;-52
2022/04/05 08:29:18;;;;;;;9.35;1.70;;;9.10;99.90;;;;;;5059681;28;37382;-52
2022/04/05 08:31:46;;;;;;;12.80;2.45;;;9.10;99.90;;;;;;5059243;28;38637;-51
2022/04/05 08:34:14;;;;;;;10.90;1.95;;;9.10;99.90;;;;;;5058228;28;38219;-53
2022/04/05 08:36:42;;;;;;;11.98;2.47;;;9.20;99.90;;;;;;5059175;28;37651;-51
2022/04/05 08:39:09;;;;;;;11.75;2.08;;;9.20;99.90;;;;;;5060114;28;37519;-53
2022/04/05 08:41:38;;;;;;;8.20;2.72;;;9.30;99.90;;;;;;5060562;28;36146;-53
2022/04/05 08:44:08;;;;;;;9.50;2.10;;;9.40;99.90;;;;;;5062239;28;36279;-52
2022/04/05 08:46:38;;;;;;;8.70;1.85;;;9.40;99.90;;;;;;5061653;28;39602;-52
2022/04/05 08:49:06;;;;;;;10.93;2.15;;;9.50;99.90;;;;;;5062075;28;35985;-53
2022/04/05 08:51:35;;;;;;;8.15;1.58;;;9.60;99.90;;;;;;5062060;28;37637;-52
2022/04/05 08:54:03;;;;;;;10.10;1.85;;;9.60;99.90;;;;;;5062606;28;37713;-58
2022/04/05 08:56:31;;;;;;;6.38;1.40;;;9.70;99.90;;;;;;5061558;28;38027;-53
2022/04/05 08:58:58;;;;;;;11.10;1.90;;;9.80;99.90;;;;;;5061876;28;37263;-53
2022/04/05 09:01:29;;;;;;;6.07;1.52;;;9.80;99.90;;;;;;5062489;28;37230;-53
2022/04/05 09:03:57;;;;;;;11.65;2.65;;;9.90;99.90;;;;;;5061840;28;36296;-53
2022/04/05 09:06:25;;;;;;;8.90;2.03;;;10.10;99.90;;;;;;5065195;28;38878;-53
2022/04/05 09:08:58;;;;;;;8.10;2.28;;;10.00;99.90;;;;;;5064374;28;36819;-53
2022/04/05 09:11:28;;;;;;;8.55;1.75;;;10.10;99.90;;;;;;5064405;28;36507;-53
2022/04/05 09:14:00;;;;;;;7.30;1.30;;;10.00;99.90;;;;;;5063531;28;37887;-51
2022/04/05 09:16:31;;;;;;;8.00;1.40;;;10.00;99.90;;;;;;5063545;28;37717;-53
2022/04/05 09:18:59;;;;;;;11.48;2.95;;;10.00;99.90;;;;;;5061809;28;37240;-53
2022/04/05 09:21:27;;;;;;;5.03;1.42;;;10.10;99.90;;;;;;5062158;28;38356;-53
2022/04/05 09:24:07;;;;;;;8.75;1.65;;;10.00;99.90;;;;;;5062764;28;37749;-53
2022/04/05 09:26:43;;;;;;;10.25;2.42;;;10.00;99.90;;;;;;5062464;28;39120;-54
2022/04/05 09:29:11;;;;;;;6.60;1.65;;;10.00;99.90;;;;;;5061625;28;37610;-53
2022/04/05 09:31:47;;;;;;;11.38;2.20;;;10.00;99.90;;;;;;5062738;28;36938;-52
2022/04/05 09:34:19;;;;;;;6.18;1.60;;;10.00;99.90;;;;;;5059806;28;36310;-53
2022/04/05 09:36:49;;;;;;;8.30;2.05;;;10.00;99.90;;;;;;5062190;28;38359;-52
2022/04/05 09:39:20;;;;;;;8.50;2.28;;;10.00;99.90;;;;;;5061027;28;39433;-52
2022/04/05 09:41:51;;;;;;;12.48;2.65;;;10.00;99.90;;;;;;5061746;28;37757;-53
2022/04/05 09:44:27;;;;;;;7.43;1.70;;;10.00;99.90;;;;;;5061931;28;37917;-53
2022/04/05 09:47:04;;;;;;;6.28;1.95;;;10.00;99.90;;;;;;5061719;28;38484;-53
2022/04/05 09:49:33;;;;;;;6.95;1.90;;;9.90;99.90;;;;;;5061390;28;37461;-51
2022/04/05 09:52:00;;;;;;;9.82;2.40;;;9.80;99.90;;;;;;5061468;28;38212;-53
2022/04/05 09:54:30;;;;;;;11.27;2.20;;;9.90;99.90;;;;;;5061486;28;39726;-51
2022/04/05 09:57:03;;;;;;;9.20;1.95;;;9.80;99.90;;;;;;5061725;28;37873;-53
2022/04/05 09:59:39;;;;;;;9.20;2.30;;;9.80;99.90;;;;;;5061697;28;36017;-53
2022/04/05 10:02:15;;;;;;;8.75;2.60;;;9.80;99.90;;;;;;5062666;28;36625;-53
2022/04/05 10:05:01;;;;;;;8.68;2.28;;;9.80;99.90;;;;;;5060985;28;37290;-53
2022/04/05 10:07:30;;;;;;;6.80;2.03;;;9.80;99.90;;;;;;5061222;28;36347;-52
2022/04/05 10:10:01;;;;;;;8.82;2.42;;;9.80;99.90;;;;;;5060873;28;37838;-52
2022/04/05 10:12:29;;;;;;;4.53;1.33;;;9.90;99.90;;;;;;5061581;28;36564;-52
2022/04/05 10:14:57;;;;;;;4.25;1.42;;;9.90;99.90;;;;;;5060909;28;38122;-52
2022/04/05 10:17:26;;;;;;;5.18;1.80;;;9.90;99.90;;;;;;5062023;28;39202;-52
2022/04/05 10:19:56;;;;;;;5.05;1.48;;;9.90;99.90;;;;;;5062116;28;36998;-53
2022/04/05 10:22:24;;;;;;;7.80;1.55;;;9.90;99.90;;;;;;5061886;28;35306;-53
2022/04/05 10:24:53;;;;;;;5.97;1.50;;;10.00;99.90;;;;;;5062644;28;36274;-53
2022/04/05 10:27:23;;;;;;;4.03;1.42;;;10.00;99.90;;;;;;5060778;28;37681;-52
2022/04/05 10:29:57;;;;;;;3.53;1.10;;;10.10;99.90;;;;;;5062225;28;39282;-53
2022/04/05 10:32:32;;;;;;;3.35;1.02;;;10.10;99.90;;;;;;5061458;28;37311;-53
2022/04/05 10:35:04;;;;;;;4.82;1.20;;;10.20;99.90;;;;;;5061893;28;37758;-53
2022/04/05 10:37:33;;;;;;;3.33;1.10;;;10.20;99.90;;;;;;5061282;28;36406;-52
2022/04/05 10:40:17;;;;;;;4.05;1.38;;;10.30;99.90;;;;;;5061273;28;38193;-51
2022/04/05 10:42:47;;;;;;;3.90;1.50;;;10.30;99.90;;;;;;5062138;28;34989;-52
2022/04/05 10:45:17;;;;;;;3.45;1.40;;;10.30;99.90;;;;;;5061584;28;39909;-53
2022/04/05 10:48:02;;;;;;;5.88;1.60;;;10.40;99.90;;;;;;5062380;28;37931;-52
2022/04/05 10:50:30;;;;;;;2.80;1.20;;;10.40;99.90;;;;;;5061214;28;38184;-52
2022/04/05 10:53:31;;;;;;;3.03;1.65;;;10.40;99.90;;;;;;5061192;28;36513;-53
2022/04/05 10:56:15;;;;;;;3.78;1.10;;;10.60;99.90;;;;;;5017833;28;37539;-52
2022/04/05 10:59:17;;;;;;;2.95;1.55;;;10.70;99.90;;;;;;5057490;28;38620;-52
2022/04/05 11:01:45;;;;;;;2.17;1.00;;;10.70;99.90;;;;;;5058037;28;37224;-53
2022/04/05 11:04:37;;;;;;;2.08;1.08;;;10.70;99.90;;;;;;5060726;28;35156;-53
2022/04/05 11:07:12;;;;;;;2.85;1.00;;;10.70;99.90;;;;;;5061548;28;37698;-53
2022/04/05 11:09:46;;;;;;;3.15;1.20;;;10.70;99.90;;;;;;5060882;28;36701;-50
2022/04/05 11:12:21;;;;;;;2.75;1.00;;;10.70;99.90;;;;;;5062036;28;37563;-52
2022/04/05 11:14:53;;;;;;;2.45;1.00;;;10.80;99.90;;;;;;5063169;28;35289;-52
2022/04/05 11:17:22;;;;;;;2.80;0.90;;;10.80;99.90;;;;;;5064027;28;37434;-53
2022/04/05 11:19:52;;;;;;;2.25;0.80;;;10.90;99.90;;;;;;5063919;28;37597;-53
2022/04/05 11:22:34;;;;;;;1.73;0.90;;;11.00;99.90;;;;;;5063825;28;36946;-52
2022/04/05 11:25:05;;;;;;;1.65;0.80;;;11.10;99.90;;;;;;5063302;28;36688;-52
2022/04/05 11:27:37;;;;;;;2.58;0.95;;;11.30;99.90;;;;;;5063138;28;35719;-53
2022/04/05 11:30:38;;;;;;;1.63;0.90;;;11.30;99.90;;;;;;5062824;28;37584;-53
2022/04/05 11:33:36;;;;;;;1.25;0.75;;;11.20;99.90;;;;;;5056637;28;35995;-53
2022/04/05 11:36:07;;;;;;;3.58;1.10;;;11.20;99.90;;;;;;5062255;28;37439;-53
2022/04/05 11:38:36;;;;;;;2.30;1.10;;;11.20;99.90;;;;;;5060821;28;38540;-53
2022/04/05 11:41:08;;;;;;;1.98;0.88;;;11.30;99.90;;;;;;5061424;28;37362;-53
2022/04/05 11:43:39;;;;;;;1.45;1.05;;;11.30;99.90;;;;;;5060162;28;39020;-53
2022/04/05 11:46:09;;;;;;;1.98;1.10;;;11.30;99.90;;;;;;5061652;28;37096;-52
2022/04/05 11:48:43;;;;;;;1.60;0.93;;;11.30;99.90;;;;;;5062006;28;39170;-54
2022/04/05 11:51:12;;;;;;;1.70;1.13;;;11.30;99.90;;;;;;5061381;28;36485;-53
2022/04/05 11:53:40;;;;;;;1.20;0.85;;;11.40;99.90;;;;;;5060696;28;38912;-52
2022/04/05 11:56:20;;;;;;;1.75;1.20;;;11.40;99.90;;;;;;5061689;28;37525;-54
2022/04/05 11:58:49;;;;;;;2.30;1.20;;;11.40;99.90;;;;;;5060256;28;36231;-53
2022/04/05 12:01:22;;;;;;;2.13;1.10;;;11.30;99.90;;;;;;5061220;28;37760;-53
2022/04/05 12:03:54;;;;;;;2.20;1.10;;;11.40;99.90;;;;;;5060151;28;37557;-53
2022/04/05 12:06:23;;;;;;;2.00;1.00;;;11.40;99.90;;;;;;5061265;28;36362;-52
2022/04/05 12:08:52;;;;;;;1.88;1.10;;;11.40;99.90;;;;;;5060885;28;37746;-54
2022/04/05 12:11:21;;;;;;;2.70;1.17;;;11.50;99.90;;;;;;5060573;28;37617;-53
2022/04/05 12:13:53;;;;;;;3.92;1.50;;;11.40;99.90;;;;;;5058849;28;38495;-53
2022/04/05 12:16:21;;;;;;;1.88;1.20;;;11.40;99.90;;;;;;5059412;28;37767;-53
2022/04/05 12:18:51;;;;;;;2.30;1.38;;;11.50;99.90;;;;;;5060291;28;37348;-53
2022/04/05 12:21:20;;;;;;;2.88;1.27;;;11.60;99.90;;;;;;5060190;28;37213;-52
2022/04/05 12:23:48;;;;;;;3.28;1.33;;;11.60;99.90;;;;;;5059915;28;37724;-53
2022/04/05 12:26:18;;;;;;;2.53;1.30;;;11.70;99.90;;;;;;5061137;28;38096;-52
2022/04/05 12:28:48;;;;;;;3.97;1.42;;;11.70;99.90;;;;;;5059908;28;37563;-51
2022/04/05 12:31:17;;;;;;;2.53;1.20;;;11.90;99.90;;;;;;5060774;28;38684;-53
2022/04/05 12:33:59;;;;;;;3.20;1.75;;;12.00;99.90;;;;;;5057333;28;36098;-53
2022/04/05 12:36:32;;;;;;;3.63;2.00;;;12.20;99.90;;;;;;5059099;28;36960;-52
2022/04/05 12:39:00;;;;;;;2.35;1.48;;;12.20;99.90;;;;;;5055740;28;37968;-52
2022/04/05 12:41:27;;;;;;;3.47;1.85;;;12.20;99.90;;;;;;5058926;28;37802;-52
2022/04/05 12:44:08;;;;;;;3.70;2.05;;;12.10;99.90;;;;;;5060917;28;37440;-52
2022/04/05 12:46:41;;;;;;;3.35;1.63;;;12.00;99.90;;;;;;5059247;28;36518;-53
2022/04/05 12:49:25;;;;;;;3.70;2.10;;;11.80;99.90;;;;;;5059949;28;37726;-53
2022/04/05 12:51:53;;;;;;;6.95;2.22;;;11.80;99.90;;;;;;5061305;28;40099;-53
2022/04/05 12:54:32;;;;;;;4.10;2.22;;;11.70;99.90;;;;;;5062047;28;37853;-53
2022/04/05 12:57:20;;;;;;;3.47;1.75;;;11.60;99.90;;;;;;5062077;28;37444;-53
2022/04/05 12:59:49;;;;;;;4.18;2.25;;;11.60;99.90;;;;;;5061437;28;38864;-52